createdAt,value
2022-11-14T00:00:35.286Z,15.40
2022-11-14T00:03:13.242Z,8.10
2022-11-14T00:05:46.206Z,5.90
2022-11-14T00:08:29.745Z,4.40
2022-11-14T00:10:58.204Z,4.20
2022-11-14T00:13:26.093Z,4.80
2022-11-14T00:15:54.649Z,4.30
2022-11-14T00:18:23.229Z,6.20
2022-11-14T00:20:53.491Z,10.70
2022-11-14T00:23:22.488Z,5.80
2022-11-14T00:25:53.716Z,8.20
2022-11-14T00:28:24.200Z,6.40
2022-11-14T00:30:51.983Z,7.70
2022-11-14T00:33:21.411Z,7.90
2022-11-14T00:36:06.025Z,3.20
2022-11-14T00:38:34.375Z,8.60
2022-11-14T00:41:03.841Z,9.80
2022-11-14T00:43:34.631Z,8.30
2022-11-14T00:46:05.212Z,7.90
2022-11-14T00:48:35.996Z,10.20
2022-11-14T00:51:07.529Z,9.90
2022-11-14T00:53:36.238Z,8.90
2022-11-14T00:56:09.372Z,7.30
2022-11-14T00:58:37.209Z,7.20
2022-11-14T01:01:06.046Z,4.70
2022-11-14T01:03:35.681Z,5.60
2022-11-14T01:06:10.228Z,8.50
2022-11-14T01:08:38.165Z,6.90
2022-11-14T01:11:19.773Z,7.60
2022-11-14T01:13:48.917Z,9.20
2022-11-14T01:16:17.807Z,5.70
2022-11-14T01:18:46.884Z,6.80
2022-11-14T01:21:17.410Z,4.40
2022-11-14T01:23:45.784Z,8.70
2022-11-14T01:26:14.692Z,7.20
2022-11-14T01:28:43.995Z,6.60
2022-11-14T01:31:22.787Z,5.10
2022-11-14T01:33:55.743Z,4.00
2022-11-14T01:36:23.585Z,7.20
2022-11-14T01:38:55.986Z,4.60
2022-11-14T01:41:26.376Z,3.30
2022-11-14T01:43:55.375Z,3.80
2022-11-14T01:46:43.487Z,2.20
2022-11-14T01:49:22.305Z,4.90
2022-11-14T01:52:21.741Z,2.70
2022-11-14T01:54:54.500Z,2.30
2022-11-14T01:57:31.782Z,2.40
2022-11-14T02:00:07.308Z,3.00
2022-11-14T02:02:36.739Z,2.40
2022-11-14T02:05:10.436Z,1.80
2022-11-14T02:07:42.662Z,2.40
2022-11-14T02:10:22.397Z,2.00
2022-11-14T02:12:52.030Z,5.00
2022-11-14T02:15:22.303Z,4.80
2022-11-14T02:17:52.542Z,2.60
2022-11-14T02:20:28.840Z,1.40
2022-11-14T02:22:58.332Z,3.00
2022-11-14T02:25:31.533Z,3.10
2022-11-14T02:28:01.129Z,3.20
2022-11-14T02:30:30.375Z,1.60
2022-11-14T02:33:15.009Z,3.60
2022-11-14T02:35:43.194Z,3.90
2022-11-14T02:38:11.039Z,4.10
2022-11-14T02:40:41.018Z,2.00
2022-11-14T02:43:10.091Z,6.00
2022-11-14T02:45:39.788Z,2.60
2022-11-14T02:48:08.917Z,1.80
2022-11-14T02:50:41.371Z,2.50
2022-11-14T02:53:09.561Z,3.70
2022-11-14T02:55:38.503Z,2.30
2022-11-14T02:58:07.596Z,3.90
2022-11-14T03:00:38.539Z,2.80
2022-11-14T03:03:17.452Z,3.60
2022-11-14T03:05:47.644Z,1.80
2022-11-14T03:08:19.858Z,4.60
2022-11-14T03:10:48.499Z,3.20
2022-11-14T03:13:16.258Z,3.90
2022-11-14T03:15:44.343Z,4.20
2022-11-14T03:18:12.975Z,2.70
2022-11-14T03:20:42.993Z,3.10
2022-11-14T03:23:14.538Z,3.50
2022-11-14T03:25:43.672Z,7.70
2022-11-14T03:28:11.513Z,2.50
2022-11-14T03:30:39.927Z,4.40
2022-11-14T03:33:07.832Z,2.10
2022-11-14T03:35:35.757Z,2.90
2022-11-14T03:38:04.194Z,2.40
2022-11-14T03:40:31.867Z,1.90
2022-11-14T03:43:00.055Z,4.20
2022-11-14T03:45:27.798Z,2.40
2022-11-14T03:48:05.235Z,3.70
2022-11-14T03:50:36.998Z,2.60
2022-11-14T03:53:05.185Z,7.30
2022-11-14T03:55:35.556Z,7.30
2022-11-14T03:58:03.596Z,8.80
2022-11-14T04:00:31.487Z,3.20
2022-11-14T04:02:59.274Z,4.80
2022-11-14T04:05:28.568Z,4.30
2022-11-14T04:07:56.777Z,4.20
2022-11-14T04:10:27.194Z,6.80
2022-11-14T04:12:55.475Z,3.90
2022-11-14T04:15:24.769Z,2.20
2022-11-14T04:17:53.118Z,5.00
2022-11-14T04:20:22.835Z,3.90
2022-11-14T04:22:51.522Z,4.90
2022-11-14T04:25:19.279Z,4.90
2022-11-14T04:27:47.241Z,3.80
2022-11-14T04:30:16.240Z,3.20
2022-11-14T04:32:51.196Z,4.90
2022-11-14T04:35:19.446Z,2.20
2022-11-14T04:37:47.812Z,4.20
2022-11-14T04:40:18.399Z,6.30
2022-11-14T04:42:46.654Z,2.60
2022-11-14T04:45:15.041Z,3.00
2022-11-14T04:47:45.324Z,5.60
2022-11-14T04:50:14.012Z,4.40
2022-11-14T04:52:41.927Z,3.40
2022-11-14T04:55:09.794Z,6.10
2022-11-14T04:57:39.727Z,4.50
2022-11-14T05:00:10.407Z,3.40
2022-11-14T05:02:42.059Z,6.30
2022-11-14T05:05:15.910Z,5.60
2022-11-14T05:07:44.753Z,1.60
2022-11-14T05:10:13.999Z,1.80
2022-11-14T05:12:41.826Z,6.00
2022-11-14T05:15:10.607Z,2.50
2022-11-14T05:17:39.916Z,2.50
2022-11-14T05:20:08.449Z,5.00
2022-11-14T05:22:37.740Z,5.30
2022-11-14T05:25:08.879Z,2.90
2022-11-14T05:27:38.914Z,2.10
2022-11-14T05:30:07.954Z,2.00
2022-11-14T05:32:37.343Z,3.90
2022-11-14T05:35:06.566Z,3.20
2022-11-14T05:37:36.414Z,6.90
2022-11-14T05:40:06.652Z,3.80
2022-11-14T05:42:34.367Z,3.20
2022-11-14T05:45:02.445Z,2.70
2022-11-14T05:47:31.654Z,5.60
2022-11-14T05:50:00.722Z,3.50
2022-11-14T05:52:29.315Z,4.00
2022-11-14T05:55:04.143Z,6.90
2022-11-14T05:57:31.804Z,2.50
2022-11-14T05:59:59.891Z,3.50
2022-11-14T06:02:28.906Z,1.90
2022-11-14T06:04:57.204Z,3.50
2022-11-14T06:07:25.173Z,1.70
2022-11-14T06:09:56.106Z,2.00
2022-11-14T06:12:23.955Z,6.50
2022-11-14T06:14:52.314Z,5.90
2022-11-14T06:17:22.652Z,5.40
2022-11-14T06:19:51.576Z,1.90
2022-11-14T06:22:19.998Z,5.60
2022-11-14T06:24:49.664Z,2.30
2022-11-14T06:27:20.218Z,3.00
2022-11-14T06:29:52.951Z,2.80
2022-11-14T06:32:22.460Z,3.50
2022-11-14T06:34:51.572Z,3.10
2022-11-14T06:37:19.700Z,2.10
2022-11-14T06:39:48.293Z,3.20
2022-11-14T06:42:17.505Z,3.30
2022-11-14T06:44:45.651Z,2.60
2022-11-14T06:47:13.466Z,1.60
2022-11-14T06:49:41.327Z,1.50
2022-11-14T06:52:11.131Z,2.20
2022-11-14T06:54:43.052Z,1.40
2022-11-14T06:57:11.893Z,4.40
2022-11-14T06:59:40.156Z,2.20
2022-11-14T07:02:17.800Z,2.60
2022-11-14T07:04:49.797Z,2.60
2022-11-14T07:07:18.126Z,2.80
2022-11-14T07:09:48.313Z,1.90
2022-11-14T07:12:17.528Z,3.70
2022-11-14T07:14:47.679Z,2.10
2022-11-14T07:17:16.667Z,1.50
2022-11-14T07:19:47.666Z,4.10
2022-11-14T07:22:15.648Z,3.40
2022-11-14T07:24:43.362Z,3.10
2022-11-14T07:27:11.559Z,2.00
2022-11-14T07:29:39.907Z,4.30
2022-11-14T07:32:07.697Z,1.70
2022-11-14T07:34:36.799Z,4.10
2022-11-14T07:37:04.843Z,0.80
2022-11-14T07:39:35.774Z,4.20
2022-11-14T07:42:05.902Z,1.20
2022-11-14T07:44:38.635Z,1.30
2022-11-14T07:47:08.984Z,1.50
2022-11-14T07:49:37.036Z,2.70
2022-11-14T07:52:09.438Z,1.40
2022-11-14T07:54:37.301Z,3.10
2022-11-14T07:57:05.292Z,1.90
2022-11-14T07:59:36.218Z,3.10
2022-11-14T08:02:06.522Z,3.00
2022-11-14T08:04:34.518Z,1.80
2022-11-14T08:07:03.758Z,3.90
2022-11-14T08:09:35.460Z,3.60
2022-11-14T08:12:06.192Z,2.40
2022-11-14T08:14:40.142Z,4.40
2022-11-14T08:17:11.080Z,2.40
2022-11-14T08:19:44.301Z,2.10
2022-11-14T08:22:17.026Z,1.20
2022-11-14T08:24:44.852Z,1.30
2022-11-14T08:27:13.757Z,1.60
2022-11-14T08:29:44.113Z,3.00
2022-11-14T08:32:12.629Z,1.80
2022-11-14T08:34:42.492Z,2.00
2022-11-14T08:37:11.178Z,1.00
2022-11-14T08:39:40.442Z,2.80
2022-11-14T08:42:10.298Z,1.00
2022-11-14T08:44:38.008Z,2.80
2022-11-14T08:47:09.079Z,1.10
2022-11-14T08:49:37.764Z,1.30
2022-11-14T08:52:16.312Z,1.40
2022-11-14T08:54:46.101Z,1.70
2022-11-14T08:57:16.678Z,5.00
2022-11-14T08:59:45.996Z,1.70
2022-11-14T09:02:15.142Z,1.20
2022-11-14T09:04:42.996Z,3.10
2022-11-14T09:07:12.883Z,1.60
2022-11-14T09:09:44.516Z,1.50
2022-11-14T09:12:16.640Z,2.10
2022-11-14T09:14:47.670Z,3.40
2022-11-14T09:17:18.605Z,2.70
2022-11-14T09:19:48.268Z,2.50
2022-11-14T09:22:17.032Z,4.00
2022-11-14T09:24:49.542Z,2.20
2022-11-14T09:27:17.761Z,2.60
2022-11-14T09:29:50.141Z,1.60
2022-11-14T09:32:19.012Z,2.80
2022-11-14T09:34:48.538Z,1.60
2022-11-14T09:37:16.689Z,1.90
2022-11-14T09:39:45.107Z,1.30
2022-11-14T09:42:41.482Z,3.10
2022-11-14T09:45:19.468Z,2.30
2022-11-14T09:48:19.096Z,4.00
2022-11-14T09:51:29.770Z,2.40
2022-11-14T09:54:21.860Z,2.40
2022-11-14T09:56:51.651Z,1.60
2022-11-14T09:59:24.327Z,2.80
2022-11-14T10:02:14.939Z,1.40
2022-11-14T10:05:14.355Z,3.60
2022-11-14T10:08:14.397Z,4.10
2022-11-14T10:10:42.804Z,1.60
2022-11-14T10:13:41.127Z,1.60
2022-11-14T10:17:00.455Z,0.80
2022-11-14T10:19:57.119Z,0.60
2022-11-14T10:23:09.353Z,1.20
2022-11-14T10:26:03.268Z,1.10
2022-11-14T10:28:52.050Z,3.80
2022-11-14T10:31:43.857Z,1.30
2022-11-14T10:34:26.863Z,1.00
2022-11-14T10:37:30.064Z,5.40
2022-11-14T10:40:38.706Z,1.90
2022-11-14T10:43:35.553Z,3.00
2022-11-14T10:46:27.017Z,1.70
2022-11-14T10:49:00.713Z,1.30
2022-11-14T10:51:48.325Z,1.50
2022-11-14T10:56:57.536Z,5.20
2022-11-14T10:59:28.501Z,1.90
2022-11-14T11:01:59.582Z,5.50
2022-11-14T11:04:35.812Z,5.70
2022-11-14T11:07:11.008Z,1.70
2022-11-14T11:09:59.790Z,1.00
2022-11-14T11:12:41.493Z,2.90
2022-11-14T11:15:34.800Z,1.20
2022-11-14T11:18:37.185Z,1.20
2022-11-14T11:21:13.273Z,4.40
2022-11-14T11:24:00.439Z,2.90
2022-11-14T11:26:34.134Z,1.00
2022-11-14T11:29:16.623Z,0.70
2022-11-14T11:31:59.947Z,1.80
2022-11-14T11:34:35.104Z,1.50
2022-11-14T11:37:27.012Z,0.50
2022-11-14T11:40:01.451Z,0.70
2022-11-14T11:45:34.835Z,1.50
2022-11-14T11:48:20.743Z,0.70
2022-11-14T11:50:50.397Z,4.80
2022-11-14T11:53:43.031Z,0.50
2022-11-14T11:56:33.655Z,1.70
2022-11-14T11:59:36.613Z,0.70
2022-11-14T12:02:27.942Z,0.90
2022-11-14T12:05:00.865Z,0.60
2022-11-14T12:07:55.061Z,0.70
2022-11-14T12:10:34.443Z,0.50
2022-11-14T12:13:39.434Z,1.80
2022-11-14T12:16:30.251Z,1.30
2022-11-14T12:19:38.424Z,0.70
2022-11-14T12:22:44.494Z,0.90
2022-11-14T12:25:43.736Z,1.90
2022-11-14T12:29:03.045Z,0.40
2022-11-14T12:31:39.438Z,0.50
2022-11-14T12:34:33.237Z,0.80
2022-11-14T12:37:19.233Z,0.60
2022-11-14T12:40:09.992Z,0.50
2022-11-14T12:42:38.329Z,0.60
2022-11-14T12:45:41.785Z,1.80
2022-11-14T12:48:26.365Z,0.60
2022-11-14T12:50:58.925Z,0.70
2022-11-14T12:53:38.219Z,1.30
2022-11-14T12:56:30.823Z,0.80
2022-11-14T13:00:04.018Z,1.00
2022-11-14T13:02:58.343Z,2.60
2022-11-14T13:05:46.850Z,0.80
2022-11-14T13:09:36.267Z,0.70
2022-11-14T13:12:48.908Z,0.70
2022-11-14T13:15:50.683Z,0.70
2022-11-14T13:18:44.044Z,0.70
2022-11-14T13:24:19.531Z,0.60
2022-11-14T13:28:00.347Z,0.40
2022-11-14T13:30:21.335Z,0.50
2022-11-14T13:32:55.820Z,0.60
2022-11-14T13:35:40.069Z,2.00
2022-11-14T13:39:09.547Z,2.70
2022-11-14T13:42:02.771Z,0.50
2022-11-14T13:44:59.318Z,0.60
2022-11-14T13:47:52.016Z,2.20
2022-11-14T13:50:37.261Z,0.60
2022-11-14T13:53:31.095Z,0.50
2022-11-14T13:58:53.071Z,0.50
2022-11-14T14:01:31.154Z,0.90
2022-11-14T14:04:18.026Z,0.80
2022-11-14T14:07:22.443Z,3.90
2022-11-14T14:10:26.295Z,3.80
2022-11-14T14:13:29.505Z,1.70
2022-11-14T14:19:27.941Z,0.70
2022-11-14T14:22:42.247Z,0.60
2022-11-14T14:25:52.337Z,0.50
2022-11-14T14:28:53.890Z,0.50
2022-11-14T14:31:26.394Z,2.70
2022-11-14T14:34:02.883Z,0.50
2022-11-14T14:36:31.143Z,0.60
2022-11-14T14:39:22.981Z,0.50
2022-11-14T14:41:55.218Z,0.50
2022-11-14T14:44:51.161Z,0.60
2022-11-14T14:47:42.485Z,0.60
2022-11-14T14:50:27.440Z,0.90
2022-11-14T14:53:05.061Z,3.20
2022-11-14T14:55:37.625Z,0.80
2022-11-14T14:58:38.272Z,3.00
2022-11-14T15:01:20.788Z,3.00
2022-11-14T15:03:57.633Z,0.90
2022-11-14T15:06:33.355Z,0.80
2022-11-14T15:09:10.966Z,1.00
2022-11-14T15:11:44.575Z,0.80
2022-11-14T15:14:20.295Z,0.80
2022-11-14T15:16:53.320Z,0.70
2022-11-14T15:19:28.326Z,3.50
2022-11-14T15:22:24.246Z,0.60
2022-11-14T15:25:27.683Z,8.70
2022-11-14T15:27:59.083Z,1.40
2022-11-14T15:30:32.781Z,1.70
2022-11-14T15:33:06.925Z,1.50
2022-11-14T15:35:39.623Z,1.40
2022-11-14T15:41:23.641Z,1.50
2022-11-14T15:43:55.733Z,2.20
2022-11-14T15:46:36.456Z,1.00
2022-11-14T15:49:36.371Z,3.80
2022-11-14T15:52:08.655Z,1.70
2022-11-14T15:54:37.933Z,1.00
2022-11-14T15:57:18.185Z,2.50
2022-11-14T15:59:46.903Z,0.80
2022-11-14T16:02:26.475Z,1.40
2022-11-14T16:04:59.134Z,1.30
2022-11-14T16:07:28.348Z,2.00
2022-11-14T16:09:58.989Z,3.40
2022-11-14T16:12:26.903Z,0.70
2022-11-14T16:14:56.834Z,3.50
2022-11-14T16:17:25.070Z,2.70
2022-11-14T16:19:57.498Z,2.70
2022-11-14T16:22:30.479Z,2.80
2022-11-14T16:25:01.142Z,1.50
2022-11-14T16:27:30.858Z,2.10
2022-11-14T16:30:01.118Z,4.10
2022-11-14T16:32:29.715Z,1.20
2022-11-14T16:34:57.930Z,2.00
2022-11-14T16:37:26.999Z,5.30
2022-11-14T16:39:57.114Z,5.80
2022-11-14T16:42:30.417Z,6.80
2022-11-14T16:45:02.419Z,8.70
2022-11-14T16:47:33.216Z,5.50
2022-11-14T16:50:06.667Z,4.50
2022-11-14T16:52:37.700Z,4.40
2022-11-14T16:55:12.609Z,6.30
2022-11-14T16:57:41.250Z,3.20
2022-11-14T17:00:15.015Z,2.10
2022-11-14T17:02:43.498Z,1.30
2022-11-14T17:05:12.201Z,3.40
2022-11-14T17:07:42.906Z,1.00
2022-11-14T17:10:12.540Z,2.20
2022-11-14T17:12:41.402Z,1.90
2022-11-14T17:15:14.213Z,1.60
2022-11-14T17:17:47.612Z,6.90
2022-11-14T17:20:17.123Z,2.00
2022-11-14T17:22:47.769Z,6.10
2022-11-14T17:25:15.802Z,2.30
2022-11-14T17:27:52.197Z,3.10
2022-11-14T17:30:20.387Z,4.40
2022-11-14T17:32:53.823Z,6.10
2022-11-14T17:35:30.056Z,3.80
2022-11-14T17:38:00.437Z,7.60
2022-11-14T17:40:30.193Z,10.80
2022-11-14T17:42:58.211Z,14.00
2022-11-14T17:45:31.946Z,9.30
2022-11-14T17:48:00.602Z,5.50
2022-11-14T17:50:33.080Z,5.60
2022-11-14T17:53:05.628Z,3.30
2022-11-14T17:55:40.945Z,2.30
2022-11-14T17:58:12.543Z,5.00
2022-11-14T18:00:43.356Z,2.60
2022-11-14T18:03:12.596Z,1.40
2022-11-14T18:05:40.433Z,2.10
2022-11-14T18:08:08.667Z,1.40
2022-11-14T18:10:40.556Z,2.50
2022-11-14T18:13:12.910Z,2.70
2022-11-14T18:15:42.363Z,1.30
2022-11-14T18:18:14.909Z,0.80
2022-11-14T18:20:44.892Z,2.50
2022-11-14T18:23:15.777Z,1.60
2022-11-14T18:25:43.738Z,1.10
2022-11-14T18:28:13.245Z,1.50
2022-11-14T18:30:43.697Z,3.70
2022-11-14T18:33:15.133Z,1.70
2022-11-14T18:36:15.864Z,2.60
2022-11-14T18:38:48.276Z,4.40
2022-11-14T18:41:22.461Z,1.10
2022-11-14T18:44:06.423Z,0.80
2022-11-14T18:46:37.354Z,3.20
2022-11-14T18:49:05.873Z,1.10
2022-11-14T18:51:42.053Z,1.20
2022-11-14T18:54:20.220Z,1.10
2022-11-14T18:56:48.568Z,3.90
2022-11-14T18:59:20.329Z,2.00
2022-11-14T19:01:53.783Z,2.60
2022-11-14T19:06:57.072Z,0.80
2022-11-14T19:09:26.045Z,5.80
2022-11-14T19:12:13.329Z,3.40
2022-11-14T19:14:46.377Z,1.60
2022-11-14T19:17:19.175Z,1.40
2022-11-14T19:19:54.073Z,1.00
2022-11-14T19:22:23.258Z,1.10
2022-11-14T19:24:51.550Z,3.40
2022-11-14T19:27:22.681Z,1.50
2022-11-14T19:29:54.285Z,1.50
2022-11-14T19:32:22.311Z,1.20
2022-11-14T19:34:52.096Z,1.50
2022-11-14T19:37:24.389Z,1.80
2022-11-14T19:39:55.740Z,2.60
2022-11-14T19:42:29.082Z,1.40
2022-11-14T19:44:57.288Z,0.70
2022-11-14T19:47:25.359Z,2.40
2022-11-14T19:49:56.453Z,2.70
2022-11-14T19:52:26.808Z,1.20
2022-11-14T19:54:56.521Z,1.30
2022-11-14T19:57:24.501Z,1.60
2022-11-14T19:59:53.340Z,1.20
2022-11-14T20:02:26.990Z,1.60
2022-11-14T20:04:55.894Z,2.00
2022-11-14T20:07:24.357Z,1.20
2022-11-14T20:09:52.596Z,1.20
2022-11-14T20:12:20.480Z,2.20
2022-11-14T20:14:48.905Z,2.70
2022-11-14T20:17:18.994Z,1.00
2022-11-14T20:19:47.722Z,0.80
2022-11-14T20:22:16.349Z,0.80
2022-11-14T20:24:44.497Z,0.90
2022-11-14T20:27:17.927Z,0.90
2022-11-14T20:29:48.456Z,0.90
2022-11-14T20:32:18.185Z,2.10
2022-11-14T20:34:49.858Z,1.70
2022-11-14T20:37:20.135Z,0.50
2022-11-14T20:39:47.885Z,0.80
2022-11-14T20:42:16.388Z,0.90
2022-11-14T20:44:45.170Z,1.20
2022-11-14T20:47:14.701Z,1.20
2022-11-14T20:49:43.484Z,2.10
2022-11-14T20:52:11.435Z,0.80
2022-11-14T20:54:41.819Z,0.90
2022-11-14T20:57:11.091Z,0.80
2022-11-14T20:59:43.907Z,0.80
2022-11-14T21:02:15.500Z,1.20
2022-11-14T21:04:52.085Z,1.30
2022-11-14T21:07:21.021Z,0.70
2022-11-14T21:09:50.958Z,1.60
2022-11-14T21:12:19.108Z,0.70
2022-11-14T21:14:50.117Z,0.80
2022-11-14T21:17:29.242Z,1.40
2022-11-14T21:19:58.400Z,1.80
2022-11-14T21:22:27.068Z,0.90
2022-11-14T21:24:56.561Z,1.30
2022-11-14T21:27:24.279Z,2.10
2022-11-14T21:29:56.681Z,1.20
2022-11-14T21:32:24.447Z,0.90
2022-11-14T21:34:53.167Z,0.80
2022-11-14T21:37:21.391Z,1.00
2022-11-14T21:39:50.487Z,1.90
2022-11-14T21:42:19.048Z,1.50
2022-11-14T21:44:47.319Z,1.00
2022-11-14T21:47:15.491Z,0.80
2022-11-14T21:49:45.975Z,0.70
2022-11-14T21:52:14.045Z,1.90
2022-11-14T21:54:42.100Z,1.60
2022-11-14T21:57:13.940Z,2.00
2022-11-14T21:59:44.372Z,0.80
2022-11-14T22:02:31.802Z,1.70
2022-11-14T22:05:00.750Z,1.80
2022-11-14T22:07:31.011Z,1.90
2022-11-14T22:09:59.285Z,1.00
2022-11-14T22:12:29.502Z,2.90
2022-11-14T22:14:57.730Z,1.10
2022-11-14T22:17:25.713Z,1.00
2022-11-14T22:19:55.657Z,1.10
2022-11-14T22:22:23.440Z,1.00
2022-11-14T22:24:53.336Z,5.00
2022-11-14T22:27:21.676Z,2.70
2022-11-14T22:29:58.213Z,1.40
2022-11-14T22:32:27.834Z,1.80
2022-11-14T22:34:56.920Z,1.80
2022-11-14T22:37:25.469Z,0.80
2022-11-14T22:39:53.560Z,0.90
2022-11-14T22:42:23.033Z,0.80
2022-11-14T22:44:50.743Z,0.50
2022-11-14T22:47:21.157Z,0.90
2022-11-14T22:49:49.131Z,0.90
2022-11-14T22:52:17.833Z,0.60
2022-11-14T22:54:46.285Z,1.60
2022-11-14T22:57:14.550Z,0.70
2022-11-14T22:59:43.257Z,0.50
2022-11-14T23:02:12.728Z,1.10
2022-11-14T23:04:41.074Z,0.60
2022-11-14T23:07:09.793Z,0.60
2022-11-14T23:09:43.925Z,1.10
2022-11-14T23:12:12.770Z,0.60
2022-11-14T23:14:43.065Z,0.60
2022-11-14T23:17:11.980Z,0.60
2022-11-14T23:19:40.425Z,0.50
2022-11-14T23:22:08.205Z,0.50
2022-11-14T23:24:35.983Z,0.50
2022-11-14T23:27:08.834Z,1.90
2022-11-14T23:29:38.064Z,0.50
2022-11-14T23:32:06.375Z,0.50
2022-11-14T23:34:37.112Z,0.50
2022-11-14T23:37:09.162Z,3.20
2022-11-14T23:39:37.881Z,0.50
2022-11-14T23:42:05.988Z,2.20
2022-11-14T23:44:33.878Z,0.40
2022-11-14T23:47:02.176Z,0.60
2022-11-14T23:49:30.151Z,0.60
2022-11-14T23:52:00.116Z,0.40
2022-11-14T23:54:28.879Z,0.60
2022-11-14T23:57:04.078Z,0.30
2022-11-14T23:59:33.134Z,0.60
